sensor_id;sensor_type;location;lat;lon;timestamp;P1;durP1;ratioP1;P2;durP2;ratioP2
43809;SDS011;29440;48.208;11.162;2023-04-03T00:01:30;8.85;;;4.93;;
43809;SDS011;29440;48.208;11.162;2023-04-03T00:03:57;10.77;;;5.40;;
43809;SDS011;29440;48.208;11.162;2023-04-03T00:06:22;8.68;;;5.25;;
43809;SDS011;29440;48.208;11.162;2023-04-03T00:08:50;8.40;;;5.10;;
43809;SDS011;29440;48.208;11.162;2023-04-03T00:11:16;10.38;;;5.32;;
43809;SDS011;29440;48.208;11.162;2023-04-03T00:13:43;10.35;;;4.85;;
43809;SDS011;29440;48.208;11.162;2023-04-03T00:16:09;9.00;;;4.88;;
43809;SDS011;29440;48.208;11.162;2023-04-03T00:18:35;11.07;;;5.45;;
43809;SDS011;29440;48.208;11.162;2023-04-03T00:21:04;7.75;;;4.70;;
43809;SDS011;29440;48.208;11.162;2023-04-03T00:23:30;6.45;;;4.28;;
43809;SDS011;29440;48.208;11.162;2023-04-03T00:28:41;7.80;;;4.40;;
43809;SDS011;29440;48.208;11.162;2023-04-03T00:31:07;11.30;;;4.38;;
43809;SDS011;29440;48.208;11.162;2023-04-03T00:33:33;10.25;;;5.20;;
43809;SDS011;29440;48.208;11.162;2023-04-03T00:35:58;6.38;;;4.15;;
43809;SDS011;29440;48.208;11.162;2023-04-03T00:38:24;7.13;;;4.40;;
43809;SDS011;29440;48.208;11.162;2023-04-03T00:40:50;7.65;;;3.90;;
43809;SDS011;29440;48.208;11.162;2023-04-03T00:43:22;8.18;;;3.75;;
43809;SDS011;29440;48.208;11.162;2023-04-03T00:45:50;10.25;;;3.97;;
43809;SDS011;29440;48.208;11.162;2023-04-03T00:48:21;6.97;;;3.47;;
43809;SDS011;29440;48.208;11.162;2023-04-03T00:50:53;6.30;;;3.20;;
43809;SDS011;29440;48.208;11.162;2023-04-03T00:53:22;5.68;;;3.08;;
43809;SDS011;29440;48.208;11.162;2023-04-03T00:55:58;9.20;;;3.10;;
43809;SDS011;29440;48.208;11.162;2023-04-03T00:58:30;6.50;;;3.35;;
43809;SDS011;29440;48.208;11.162;2023-04-03T01:01:03;4.63;;;2.70;;
43809;SDS011;29440;48.208;11.162;2023-04-03T01:03:32;5.32;;;2.78;;
43809;SDS011;29440;48.208;11.162;2023-04-03T01:05:58;4.72;;;2.40;;
43809;SDS011;29440;48.208;11.162;2023-04-03T01:08:24;4.18;;;1.65;;
43809;SDS011;29440;48.208;11.162;2023-04-03T01:10:50;3.95;;;2.30;;
43809;SDS011;29440;48.208;11.162;2023-04-03T01:13:20;5.10;;;2.30;;
43809;SDS011;29440;48.208;11.162;2023-04-03T01:15:49;3.63;;;1.88;;
43809;SDS011;29440;48.208;11.162;2023-04-03T01:18:15;3.22;;;1.80;;
43809;SDS011;29440;48.208;11.162;2023-04-03T01:26:12;4.50;;;1.88;;
43809;SDS011;29440;48.208;11.162;2023-04-03T01:28:38;3.42;;;2.03;;
43809;SDS011;29440;48.208;11.162;2023-04-03T01:31:24;5.72;;;1.70;;
43809;SDS011;29440;48.208;11.162;2023-04-03T01:34:05;4.93;;;2.00;;
43809;SDS011;29440;48.208;11.162;2023-04-03T01:36:31;5.82;;;1.67;;
43809;SDS011;29440;48.208;11.162;2023-04-03T01:38:57;3.03;;;1.63;;
43809;SDS011;29440;48.208;11.162;2023-04-03T01:41:24;5.55;;;1.65;;
43809;SDS011;29440;48.208;11.162;2023-04-03T01:43:50;2.83;;;1.75;;
43809;SDS011;29440;48.208;11.162;2023-04-03T01:46:16;2.88;;;1.52;;
43809;SDS011;29440;48.208;11.162;2023-04-03T01:48:43;3.05;;;1.42;;
43809;SDS011;29440;48.208;11.162;2023-04-03T01:51:08;4.57;;;1.58;;
43809;SDS011;29440;48.208;11.162;2023-04-03T01:53:35;2.65;;;1.30;;
43809;SDS011;29440;48.208;11.162;2023-04-03T01:56:00;4.13;;;1.83;;
43809;SDS011;29440;48.208;11.162;2023-04-03T01:58:26;2.58;;;1.50;;
43809;SDS011;29440;48.208;11.162;2023-04-03T02:00:51;2.47;;;1.40;;
43809;SDS011;29440;48.208;11.162;2023-04-03T02:03:17;3.00;;;1.33;;
43809;SDS011;29440;48.208;11.162;2023-04-03T02:05:43;4.22;;;1.67;;
43809;SDS011;29440;48.208;11.162;2023-04-03T02:08:09;2.60;;;1.60;;
43809;SDS011;29440;48.208;11.162;2023-04-03T02:10:35;2.80;;;1.20;;
43809;SDS011;29440;48.208;11.162;2023-04-03T02:13:01;2.50;;;1.30;;
43809;SDS011;29440;48.208;11.162;2023-04-03T02:15:26;2.55;;;1.58;;
43809;SDS011;29440;48.208;11.162;2023-04-03T02:17:52;3.78;;;1.80;;
43809;SDS011;29440;48.208;11.162;2023-04-03T02:20:18;2.25;;;1.33;;
43809;SDS011;29440;48.208;11.162;2023-04-03T02:22:44;3.15;;;1.58;;
43809;SDS011;29440;48.208;11.162;2023-04-03T02:25:09;2.97;;;1.65;;
43809;SDS011;29440;48.208;11.162;2023-04-03T02:27:35;2.72;;;1.70;;
43809;SDS011;29440;48.208;11.162;2023-04-03T02:30:01;3.60;;;1.40;;
43809;SDS011;29440;48.208;11.162;2023-04-03T02:32:28;3.13;;;1.33;;
43809;SDS011;29440;48.208;11.162;2023-04-03T02:34:54;2.70;;;1.42;;
43809;SDS011;29440;48.208;11.162;2023-04-03T02:37:20;2.67;;;1.55;;
43809;SDS011;29440;48.208;11.162;2023-04-03T02:39:46;4.13;;;1.45;;
43809;SDS011;29440;48.208;11.162;2023-04-03T02:42:11;3.83;;;1.45;;
43809;SDS011;29440;48.208;11.162;2023-04-03T02:44:37;2.65;;;1.60;;
43809;SDS011;29440;48.208;11.162;2023-04-03T02:47:03;3.60;;;1.90;;
43809;SDS011;29440;48.208;11.162;2023-04-03T02:49:30;4.15;;;1.80;;
43809;SDS011;29440;48.208;11.162;2023-04-03T02:51:56;2.45;;;1.70;;
43809;SDS011;29440;48.208;11.162;2023-04-03T02:54:22;2.90;;;1.80;;
43809;SDS011;29440;48.208;11.162;2023-04-03T02:56:48;2.65;;;1.58;;
43809;SDS011;29440;48.208;11.162;2023-04-03T02:59:14;3.95;;;1.77;;
43809;SDS011;29440;48.208;11.162;2023-04-03T03:01:40;3.28;;;1.67;;
43809;SDS011;29440;48.208;11.162;2023-04-03T03:04:05;4.07;;;1.98;;
43809;SDS011;29440;48.208;11.162;2023-04-03T03:06:31;4.22;;;1.95;;
43809;SDS011;29440;48.208;11.162;2023-04-03T03:08:57;2.70;;;1.50;;
43809;SDS011;29440;48.208;11.162;2023-04-03T03:11:22;3.25;;;1.80;;
43809;SDS011;29440;48.208;11.162;2023-04-03T03:13:48;4.00;;;1.95;;
43809;SDS011;29440;48.208;11.162;2023-04-03T03:16:15;2.53;;;1.33;;
43809;SDS011;29440;48.208;11.162;2023-04-03T03:18:40;2.55;;;1.77;;
43809;SDS011;29440;48.208;11.162;2023-04-03T03:21:06;5.68;;;2.10;;
43809;SDS011;29440;48.208;11.162;2023-04-03T03:23:32;3.72;;;2.22;;
43809;SDS011;29440;48.208;11.162;2023-04-03T03:25:59;2.80;;;1.50;;
43809;SDS011;29440;48.208;11.162;2023-04-03T03:28:29;2.30;;;1.50;;
43809;SDS011;29440;48.208;11.162;2023-04-03T03:30:55;5.43;;;1.75;;
43809;SDS011;29440;48.208;11.162;2023-04-03T03:33:22;4.70;;;1.95;;
43809;SDS011;29440;48.208;11.162;2023-04-03T03:35:47;4.70;;;1.75;;
43809;SDS011;29440;48.208;11.162;2023-04-03T03:38:13;3.75;;;2.17;;
43809;SDS011;29440;48.208;11.162;2023-04-03T03:40:38;3.85;;;2.28;;
43809;SDS011;29440;48.208;11.162;2023-04-03T03:43:04;4.95;;;2.22;;
43809;SDS011;29440;48.208;11.162;2023-04-03T03:45:30;5.70;;;1.95;;
43809;SDS011;29440;48.208;11.162;2023-04-03T03:47:56;4.95;;;1.95;;
43809;SDS011;29440;48.208;11.162;2023-04-03T03:50:21;5.32;;;1.88;;
43809;SDS011;29440;48.208;11.162;2023-04-03T03:52:47;4.03;;;2.05;;
43809;SDS011;29440;48.208;11.162;2023-04-03T03:55:12;5.03;;;2.20;;
43809;SDS011;29440;48.208;11.162;2023-04-03T03:57:38;4.28;;;2.03;;
43809;SDS011;29440;48.208;11.162;2023-04-03T04:00:04;4.72;;;2.00;;
43809;SDS011;29440;48.208;11.162;2023-04-03T04:02:30;5.75;;;2.40;;
43809;SDS011;29440;48.208;11.162;2023-04-03T04:04:56;3.97;;;2.10;;
43809;SDS011;29440;48.208;11.162;2023-04-03T04:07:21;3.30;;;1.98;;
43809;SDS011;29440;48.208;11.162;2023-04-03T04:09:47;3.53;;;1.65;;
43809;SDS011;29440;48.208;11.162;2023-04-03T04:12:13;2.83;;;1.70;;
43809;SDS011;29440;48.208;11.162;2023-04-03T04:14:38;4.72;;;1.80;;
43809;SDS011;29440;48.208;11.162;2023-04-03T04:17:05;4.82;;;1.95;;
43809;SDS011;29440;48.208;11.162;2023-04-03T04:19:30;3.92;;;2.00;;
43809;SDS011;29440;48.208;11.162;2023-04-03T04:21:56;5.50;;;2.13;;
43809;SDS011;29440;48.208;11.162;2023-04-03T04:24:24;3.63;;;2.05;;
43809;SDS011;29440;48.208;11.162;2023-04-03T04:26:50;4.90;;;2.05;;
43809;SDS011;29440;48.208;11.162;2023-04-03T04:29:16;7.15;;;2.25;;
43809;SDS011;29440;48.208;11.162;2023-04-03T04:31:41;3.55;;;1.75;;
43809;SDS011;29440;48.208;11.162;2023-04-03T04:34:07;3.38;;;2.05;;
43809;SDS011;29440;48.208;11.162;2023-04-03T04:36:33;3.58;;;2.65;;
43809;SDS011;29440;48.208;11.162;2023-04-03T04:38:58;3.70;;;2.22;;
43809;SDS011;29440;48.208;11.162;2023-04-03T04:41:24;7.03;;;2.67;;
43809;SDS011;29440;48.208;11.162;2023-04-03T04:43:50;3.58;;;2.10;;
43809;SDS011;29440;48.208;11.162;2023-04-03T04:46:17;4.18;;;2.25;;
43809;SDS011;29440;48.208;11.162;2023-04-03T04:48:43;5.63;;;2.65;;
43809;SDS011;29440;48.208;11.162;2023-04-03T04:51:09;5.30;;;2.30;;
43809;SDS011;29440;48.208;11.162;2023-04-03T04:53:35;3.38;;;2.28;;
43809;SDS011;29440;48.208;11.162;2023-04-03T04:56:01;3.33;;;1.95;;
43809;SDS011;29440;48.208;11.162;2023-04-03T04:58:27;2.50;;;1.80;;
43809;SDS011;29440;48.208;11.162;2023-04-03T05:01:02;3.78;;;1.88;;
43809;SDS011;29440;48.208;11.162;2023-04-03T05:03:29;4.75;;;1.80;;
43809;SDS011;29440;48.208;11.162;2023-04-03T05:05:55;4.07;;;2.40;;
43809;SDS011;29440;48.208;11.162;2023-04-03T05:08:21;3.97;;;1.92;;
43809;SDS011;29440;48.208;11.162;2023-04-03T05:10:46;4.90;;;1.98;;
43809;SDS011;29440;48.208;11.162;2023-04-03T05:13:12;4.75;;;2.42;;
43809;SDS011;29440;48.208;11.162;2023-04-03T05:15:38;4.00;;;2.22;;
43809;SDS011;29440;48.208;11.162;2023-04-03T05:18:04;5.15;;;2.28;;
43809;SDS011;29440;48.208;11.162;2023-04-03T05:20:30;3.45;;;2.05;;
43809;SDS011;29440;48.208;11.162;2023-04-03T05:22:56;8.45;;;2.75;;
43809;SDS011;29440;48.208;11.162;2023-04-03T05:25:22;6.22;;;2.30;;
43809;SDS011;29440;48.208;11.162;2023-04-03T05:27:47;5.72;;;2.50;;
43809;SDS011;29440;48.208;11.162;2023-04-03T05:30:13;5.03;;;2.15;;
43809;SDS011;29440;48.208;11.162;2023-04-03T05:32:39;4.63;;;2.38;;
43809;SDS011;29440;48.208;11.162;2023-04-03T05:35:05;4.07;;;1.95;;
43809;SDS011;29440;48.208;11.162;2023-04-03T05:37:31;3.90;;;2.17;;
43809;SDS011;29440;48.208;11.162;2023-04-03T05:39:56;4.15;;;2.33;;
43809;SDS011;29440;48.208;11.162;2023-04-03T05:42:22;6.38;;;2.63;;
43809;SDS011;29440;48.208;11.162;2023-04-03T05:44:48;4.88;;;2.35;;
43809;SDS011;29440;48.208;11.162;2023-04-03T05:47:15;6.72;;;2.80;;
43809;SDS011;29440;48.208;11.162;2023-04-03T05:49:41;6.30;;;2.53;;
43809;SDS011;29440;48.208;11.162;2023-04-03T05:52:13;5.45;;;2.83;;
43809;SDS011;29440;48.208;11.162;2023-04-03T05:54:42;5.60;;;2.67;;
43809;SDS011;29440;48.208;11.162;2023-04-03T05:57:09;6.15;;;2.80;;
43809;SDS011;29440;48.208;11.162;2023-04-03T05:59:35;5.95;;;2.92;;
43809;SDS011;29440;48.208;11.162;2023-04-03T06:02:00;5.63;;;3.15;;
43809;SDS011;29440;48.208;11.162;2023-04-03T06:04:26;6.35;;;3.05;;
43809;SDS011;29440;48.208;11.162;2023-04-03T06:06:53;7.63;;;3.10;;
43809;SDS011;29440;48.208;11.162;2023-04-03T06:09:23;7.50;;;4.22;;
43809;SDS011;29440;48.208;11.162;2023-04-03T06:11:51;10.40;;;3.17;;
43809;SDS011;29440;48.208;11.162;2023-04-03T06:14:17;5.20;;;2.65;;
43809;SDS011;29440;48.208;11.162;2023-04-03T06:16:43;3.25;;;2.28;;
43809;SDS011;29440;48.208;11.162;2023-04-03T06:19:10;4.45;;;2.30;;
43809;SDS011;29440;48.208;11.162;2023-04-03T06:21:38;6.78;;;3.17;;
43809;SDS011;29440;48.208;11.162;2023-04-03T06:24:22;4.50;;;2.28;;
43809;SDS011;29440;48.208;11.162;2023-04-03T06:26:49;4.35;;;2.83;;
43809;SDS011;29440;48.208;11.162;2023-04-03T06:29:16;6.18;;;2.45;;
43809;SDS011;29440;48.208;11.162;2023-04-03T06:31:41;3.97;;;2.33;;
43809;SDS011;29440;48.208;11.162;2023-04-03T06:34:07;6.50;;;2.38;;
43809;SDS011;29440;48.208;11.162;2023-04-03T06:36:33;6.43;;;2.92;;
43809;SDS011;29440;48.208;11.162;2023-04-03T06:38:59;5.60;;;2.70;;
43809;SDS011;29440;48.208;11.162;2023-04-03T06:41:25;4.78;;;2.50;;
43809;SDS011;29440;48.208;11.162;2023-04-03T06:43:51;7.75;;;2.88;;
43809;SDS011;29440;48.208;11.162;2023-04-03T06:46:17;5.60;;;2.38;;
43809;SDS011;29440;48.208;11.162;2023-04-03T06:48:46;5.75;;;2.72;;
43809;SDS011;29440;48.208;11.162;2023-04-03T06:51:19;5.45;;;2.80;;
43809;SDS011;29440;48.208;11.162;2023-04-03T06:53:51;6.43;;;2.67;;
43809;SDS011;29440;48.208;11.162;2023-04-03T06:56:18;5.40;;;2.95;;
43809;SDS011;29440;48.208;11.162;2023-04-03T06:58:44;6.70;;;2.17;;
43809;SDS011;29440;48.208;11.162;2023-04-03T07:01:12;4.30;;;2.65;;
43809;SDS011;29440;48.208;11.162;2023-04-03T07:03:39;4.88;;;2.58;;
43809;SDS011;29440;48.208;11.162;2023-04-03T07:06:06;3.88;;;2.33;;
43809;SDS011;29440;48.208;11.162;2023-04-03T07:08:32;5.15;;;2.60;;
43809;SDS011;29440;48.208;11.162;2023-04-03T07:10:58;4.35;;;2.75;;
43809;SDS011;29440;48.208;11.162;2023-04-03T07:13:24;7.28;;;3.20;;
43809;SDS011;29440;48.208;11.162;2023-04-03T07:15:50;5.85;;;2.58;;
43809;SDS011;29440;48.208;11.162;2023-04-03T07:18:15;5.30;;;2.78;;
43809;SDS011;29440;48.208;11.162;2023-04-03T07:20:44;7.32;;;3.03;;
43809;SDS011;29440;48.208;11.162;2023-04-03T07:23:10;6.80;;;3.05;;
43809;SDS011;29440;48.208;11.162;2023-04-03T07:25:36;5.22;;;3.08;;
43809;SDS011;29440;48.208;11.162;2023-04-03T07:28:02;6.00;;;2.90;;
43809;SDS011;29440;48.208;11.162;2023-04-03T07:30:28;4.60;;;2.42;;
43809;SDS011;29440;48.208;11.162;2023-04-03T07:32:54;5.22;;;2.53;;
43809;SDS011;29440;48.208;11.162;2023-04-03T07:35:20;4.63;;;2.85;;
43809;SDS011;29440;48.208;11.162;2023-04-03T07:37:45;5.63;;;2.65;;
43809;SDS011;29440;48.208;11.162;2023-04-03T07:40:11;5.18;;;2.83;;
43809;SDS011;29440;48.208;11.162;2023-04-03T07:42:36;6.72;;;2.38;;
43809;SDS011;29440;48.208;11.162;2023-04-03T07:45:05;4.20;;;2.65;;
43809;SDS011;29440;48.208;11.162;2023-04-03T07:47:31;4.82;;;2.60;;
43809;SDS011;29440;48.208;11.162;2023-04-03T07:49:57;4.85;;;2.38;;
43809;SDS011;29440;48.208;11.162;2023-04-03T07:52:23;5.40;;;2.70;;
43809;SDS011;29440;48.208;11.162;2023-04-03T07:54:49;4.72;;;2.40;;
43809;SDS011;29440;48.208;11.162;2023-04-03T07:57:14;4.65;;;2.72;;
43809;SDS011;29440;48.208;11.162;2023-04-03T07:59:41;5.80;;;2.60;;
43809;SDS011;29440;48.208;11.162;2023-04-03T08:02:11;9.75;;;2.90;;
43809;SDS011;29440;48.208;11.162;2023-04-03T08:04:37;7.38;;;3.22;;
43809;SDS011;29440;48.208;11.162;2023-04-03T08:07:03;4.85;;;3.03;;
43809;SDS011;29440;48.208;11.162;2023-04-03T08:09:29;7.50;;;3.22;;
43809;SDS011;29440;48.208;11.162;2023-04-03T08:11:55;5.75;;;3.42;;
43809;SDS011;29440;48.208;11.162;2023-04-03T08:14:20;3.88;;;2.63;;
43809;SDS011;29440;48.208;11.162;2023-04-03T08:16:46;5.43;;;2.92;;
43809;SDS011;29440;48.208;11.162;2023-04-03T08:19:13;5.13;;;3.00;;
43809;SDS011;29440;48.208;11.162;2023-04-03T08:21:40;5.45;;;2.95;;
43809;SDS011;29440;48.208;11.162;2023-04-03T08:24:09;7.20;;;2.95;;
43809;SDS011;29440;48.208;11.162;2023-04-03T08:26:35;7.40;;;3.20;;
43809;SDS011;29440;48.208;11.162;2023-04-03T08:29:00;4.70;;;2.88;;
43809;SDS011;29440;48.208;11.162;2023-04-03T08:31:27;6.53;;;3.03;;
43809;SDS011;29440;48.208;11.162;2023-04-03T08:33:52;5.35;;;3.45;;
43809;SDS011;29440;48.208;11.162;2023-04-03T08:36:25;6.13;;;3.13;;
43809;SDS011;29440;48.208;11.162;2023-04-03T08:38:52;5.35;;;2.50;;
43809;SDS011;29440;48.208;11.162;2023-04-03T08:41:27;6.60;;;3.05;;
43809;SDS011;29440;48.208;11.162;2023-04-03T08:44:02;5.82;;;3.17;;
43809;SDS011;29440;48.208;11.162;2023-04-03T08:49:39;4.13;;;2.58;;
43809;SDS011;29440;48.208;11.162;2023-04-03T08:52:23;5.35;;;3.13;;
43809;SDS011;29440;48.208;11.162;2023-04-03T08:57:50;6.60;;;2.88;;
43809;SDS011;29440;48.208;11.162;2023-04-03T09:00:23;4.75;;;2.38;;
43809;SDS011;29440;48.208;11.162;2023-04-03T09:02:53;3.83;;;2.53;;
43809;SDS011;29440;48.208;11.162;2023-04-03T09:05:32;5.78;;;2.53;;
43809;SDS011;29440;48.208;11.162;2023-04-03T09:10:58;4.15;;;2.40;;
43809;SDS011;29440;48.208;11.162;2023-04-03T09:13:46;4.00;;;1.75;;
43809;SDS011;29440;48.208;11.162;2023-04-03T09:16:21;3.97;;;2.20;;
43809;SDS011;29440;48.208;11.162;2023-04-03T09:21:54;4.25;;;2.33;;
43809;SDS011;29440;48.208;11.162;2023-04-03T09:24:58;5.22;;;2.47;;
43809;SDS011;29440;48.208;11.162;2023-04-03T09:27:46;3.75;;;2.08;;
43809;SDS011;29440;48.208;11.162;2023-04-03T09:30:15;4.60;;;2.60;;
43809;SDS011;29440;48.208;11.162;2023-04-03T09:32:47;4.15;;;2.55;;
43809;SDS011;29440;48.208;11.162;2023-04-03T09:37:46;4.30;;;2.10;;
43809;SDS011;29440;48.208;11.162;2023-04-03T09:42:57;3.15;;;1.80;;
43809;SDS011;29440;48.208;11.162;2023-04-03T09:45:32;2.97;;;2.20;;
43809;SDS011;29440;48.208;11.162;2023-04-03T09:48:13;5.40;;;2.38;;
43809;SDS011;29440;48.208;11.162;2023-04-03T09:50:59;4.30;;;2.75;;
43809;SDS011;29440;48.208;11.162;2023-04-03T09:53:40;3.23;;;2.23;;
43809;SDS011;29440;48.208;11.162;2023-04-03T09:58:42;4.35;;;1.67;;
43809;SDS011;29440;48.208;11.162;2023-04-03T10:06:35;5.43;;;1.90;;
43809;SDS011;29440;48.208;11.162;2023-04-03T10:09:24;2.35;;;1.50;;
43809;SDS011;29440;48.208;11.162;2023-04-03T10:12:06;3.08;;;1.67;;
43809;SDS011;29440;48.208;11.162;2023-04-03T10:19:42;3.92;;;1.33;;
43809;SDS011;29440;48.208;11.162;2023-04-03T10:22:28;4.43;;;1.77;;
43809;SDS011;29440;48.208;11.162;2023-04-03T10:25:11;5.28;;;1.98;;
43809;SDS011;29440;48.208;11.162;2023-04-03T10:30:28;3.33;;;1.95;;
43809;SDS011;29440;48.208;11.162;2023-04-03T10:38:54;3.07;;;1.80;;
43809;SDS011;29440;48.208;11.162;2023-04-03T10:44:16;1.90;;;1.20;;
43809;SDS011;29440;48.208;11.162;2023-04-03T10:47:00;4.38;;;2.53;;
43809;SDS011;29440;48.208;11.162;2023-04-03T10:57:21;5.35;;;2.53;;
43809;SDS011;29440;48.208;11.162;2023-04-03T10:59:56;4.40;;;1.92;;
43809;SDS011;29440;48.208;11.162;2023-04-03T11:02:28;4.57;;;2.63;;
43809;SDS011;29440;48.208;11.162;2023-04-03T11:08:12;3.47;;;1.98;;
43809;SDS011;29440;48.208;11.162;2023-04-03T11:10:45;4.43;;;3.00;;
43809;SDS011;29440;48.208;11.162;2023-04-03T11:16:00;3.72;;;1.90;;
43809;SDS011;29440;48.208;11.162;2023-04-03T11:18:43;3.83;;;2.20;;
43809;SDS011;29440;48.208;11.162;2023-04-03T11:24:33;7.05;;;2.45;;
43809;SDS011;29440;48.208;11.162;2023-04-03T11:26:59;5.55;;;2.15;;
43809;SDS011;29440;48.208;11.162;2023-04-03T11:29:31;4.65;;;2.17;;
43809;SDS011;29440;48.208;11.162;2023-04-03T11:35:01;4.95;;;2.22;;
43809;SDS011;29440;48.208;11.162;2023-04-03T11:42:46;6.07;;;1.60;;
43809;SDS011;29440;48.208;11.162;2023-04-03T11:45:23;3.90;;;1.95;;
43809;SDS011;29440;48.208;11.162;2023-04-03T11:47:56;6.70;;;1.98;;
43809;SDS011;29440;48.208;11.162;2023-04-03T11:52:56;3.72;;;1.05;;
43809;SDS011;29440;48.208;11.162;2023-04-03T12:16:10;4.00;;;2.08;;
43809;SDS011;29440;48.208;11.162;2023-04-03T12:19:00;5.03;;;1.60;;
43809;SDS011;29440;48.208;11.162;2023-04-03T12:48:26;5.22;;;1.92;;
43809;SDS011;29440;48.208;11.162;2023-04-03T12:50:54;3.70;;;1.20;;
43809;SDS011;29440;48.208;11.162;2023-04-03T12:53:26;2.70;;;1.27;;
43809;SDS011;29440;48.208;11.162;2023-04-03T12:56:18;2.05;;;1.10;;
43809;SDS011;29440;48.208;11.162;2023-04-03T12:58:48;2.45;;;1.05;;
43809;SDS011;29440;48.208;11.162;2023-04-03T13:01:20;3.70;;;1.00;;
43809;SDS011;29440;48.208;11.162;2023-04-03T13:03:49;2.28;;;1.10;;
43809;SDS011;29440;48.208;11.162;2023-04-03T13:06:19;1.70;;;0.98;;
43809;SDS011;29440;48.208;11.162;2023-04-03T13:08:58;1.65;;;0.90;;
43809;SDS011;29440;48.208;11.162;2023-04-03T13:11:26;3.70;;;1.23;;
43809;SDS011;29440;48.208;11.162;2023-04-03T13:13:58;7.45;;;2.25;;
43809;SDS011;29440;48.208;11.162;2023-04-03T13:16:28;5.63;;;1.67;;
43809;SDS011;29440;48.208;11.162;2023-04-03T13:18:54;3.75;;;1.33;;
43809;SDS011;29440;48.208;11.162;2023-04-03T13:21:21;4.15;;;1.13;;
43809;SDS011;29440;48.208;11.162;2023-04-03T13:23:58;3.83;;;1.27;;
43809;SDS011;29440;48.208;11.162;2023-04-03T13:26:26;2.28;;;1.00;;
43809;SDS011;29440;48.208;11.162;2023-04-03T13:29:06;4.45;;;1.30;;
43809;SDS011;29440;48.208;11.162;2023-04-03T13:31:55;4.68;;;1.15;;
43809;SDS011;29440;48.208;11.162;2023-04-03T13:34:22;1.73;;;1.10;;
43809;SDS011;29440;48.208;11.162;2023-04-03T13:39:21;2.10;;;1.00;;
43809;SDS011;29440;48.208;11.162;2023-04-03T13:46:46;2.97;;;1.10;;
43809;SDS011;29440;48.208;11.162;2023-04-03T13:51:56;3.88;;;1.27;;
43809;SDS011;29440;48.208;11.162;2023-04-03T13:54:24;2.83;;;1.33;;
43809;SDS011;29440;48.208;11.162;2023-04-03T13:56:54;6.70;;;1.42;;
43809;SDS011;29440;48.208;11.162;2023-04-03T13:59:23;1.63;;;1.00;;
43809;SDS011;29440;48.208;11.162;2023-04-03T14:07:13;3.25;;;0.80;;
43809;SDS011;29440;48.208;11.162;2023-04-03T14:09:40;4.50;;;0.93;;
43809;SDS011;29440;48.208;11.162;2023-04-03T14:12:08;1.70;;;0.82;;
43809;SDS011;29440;48.208;11.162;2023-04-03T14:14:39;2.60;;;1.17;;
43809;SDS011;29440;48.208;11.162;2023-04-03T14:17:16;2.13;;;0.85;;
43809;SDS011;29440;48.208;11.162;2023-04-03T14:19:44;3.67;;;0.77;;
43809;SDS011;29440;48.208;11.162;2023-04-03T14:22:12;4.70;;;0.90;;
43809;SDS011;29440;48.208;11.162;2023-04-03T14:24:44;4.20;;;0.80;;
43809;SDS011;29440;48.208;11.162;2023-04-03T14:27:15;1.98;;;0.98;;
43809;SDS011;29440;48.208;11.162;2023-04-03T14:30:00;2.40;;;0.73;;
43809;SDS011;29440;48.208;11.162;2023-04-03T14:32:28;3.88;;;0.93;;
43809;SDS011;29440;48.208;11.162;2023-04-03T14:34:54;1.45;;;0.60;;
43809;SDS011;29440;48.208;11.162;2023-04-03T14:37:21;2.83;;;0.75;;
43809;SDS011;29440;48.208;11.162;2023-04-03T14:39:50;4.53;;;1.25;;
43809;SDS011;29440;48.208;11.162;2023-04-03T14:42:19;1.85;;;0.60;;
43809;SDS011;29440;48.208;11.162;2023-04-03T14:44:47;1.83;;;0.80;;
43809;SDS011;29440;48.208;11.162;2023-04-03T14:47:13;2.97;;;0.90;;
43809;SDS011;29440;48.208;11.162;2023-04-03T14:49:56;2.25;;;0.77;;
43809;SDS011;29440;48.208;11.162;2023-04-03T14:52:30;4.05;;;1.00;;
43809;SDS011;29440;48.208;11.162;2023-04-03T14:54:58;2.65;;;0.80;;
43809;SDS011;29440;48.208;11.162;2023-04-03T14:57:25;1.63;;;0.75;;
43809;SDS011;29440;48.208;11.162;2023-04-03T14:59:52;2.35;;;1.02;;
43809;SDS011;29440;48.208;11.162;2023-04-03T15:05:04;2.80;;;0.70;;
43809;SDS011;29440;48.208;11.162;2023-04-03T15:07:33;2.88;;;0.50;;
43809;SDS011;29440;48.208;11.162;2023-04-03T15:10:09;2.40;;;0.80;;
43809;SDS011;29440;48.208;11.162;2023-04-03T15:12:46;3.30;;;0.82;;
43809;SDS011;29440;48.208;11.162;2023-04-03T15:15:13;3.13;;;0.60;;
43809;SDS011;29440;48.208;11.162;2023-04-03T15:17:40;2.33;;;0.70;;
43809;SDS011;29440;48.208;11.162;2023-04-03T15:20:20;2.67;;;0.52;;
43809;SDS011;29440;48.208;11.162;2023-04-03T15:22:48;1.60;;;0.75;;
43809;SDS011;29440;48.208;11.162;2023-04-03T15:25:14;3.38;;;0.70;;
43809;SDS011;29440;48.208;11.162;2023-04-03T15:27:40;3.33;;;0.60;;
43809;SDS011;29440;48.208;11.162;2023-04-03T15:30:06;1.30;;;0.50;;
43809;SDS011;29440;48.208;11.162;2023-04-03T15:32:33;2.30;;;0.70;;
43809;SDS011;29440;48.208;11.162;2023-04-03T15:35:00;1.70;;;0.50;;
43809;SDS011;29440;48.208;11.162;2023-04-03T15:37:26;1.95;;;0.70;;
43809;SDS011;29440;48.208;11.162;2023-04-03T15:39:51;1.67;;;0.55;;
43809;SDS011;29440;48.208;11.162;2023-04-03T15:42:17;1.13;;;0.60;;
43809;SDS011;29440;48.208;11.162;2023-04-03T15:44:43;1.73;;;0.60;;
43809;SDS011;29440;48.208;11.162;2023-04-03T15:47:08;1.70;;;0.60;;
43809;SDS011;29440;48.208;11.162;2023-04-03T15:49:34;2.03;;;0.60;;
43809;SDS011;29440;48.208;11.162;2023-04-03T15:52:00;1.30;;;0.47;;
43809;SDS011;29440;48.208;11.162;2023-04-03T15:54:25;3.42;;;0.70;;
43809;SDS011;29440;48.208;11.162;2023-04-03T15:56:52;1.67;;;0.60;;
43809;SDS011;29440;48.208;11.162;2023-04-03T15:59:18;0.60;;;0.30;;
43809;SDS011;29440;48.208;11.162;2023-04-03T16:01:44;3.55;;;0.40;;
43809;SDS011;29440;48.208;11.162;2023-04-03T16:04:10;2.20;;;0.68;;
43809;SDS011;29440;48.208;11.162;2023-04-03T16:06:36;2.58;;;0.50;;
43809;SDS011;29440;48.208;11.162;2023-04-03T16:09:03;1.50;;;0.57;;
43809;SDS011;29440;48.208;11.162;2023-04-03T16:11:29;1.80;;;0.60;;
43809;SDS011;29440;48.208;11.162;2023-04-03T16:13:55;1.85;;;0.40;;
43809;SDS011;29440;48.208;11.162;2023-04-03T16:16:21;2.15;;;0.63;;
43809;SDS011;29440;48.208;11.162;2023-04-03T16:18:49;1.70;;;0.68;;
43809;SDS011;29440;48.208;11.162;2023-04-03T16:21:15;4.55;;;1.17;;
43809;SDS011;29440;48.208;11.162;2023-04-03T16:23:41;3.03;;;0.80;;
43809;SDS011;29440;48.208;11.162;2023-04-03T16:26:08;2.45;;;0.95;;
43809;SDS011;29440;48.208;11.162;2023-04-03T16:28:33;4.63;;;0.88;;
43809;SDS011;29440;48.208;11.162;2023-04-03T16:30:59;4.32;;;1.00;;
43809;SDS011;29440;48.208;11.162;2023-04-03T16:33:25;4.13;;;0.90;;
43809;SDS011;29440;48.208;11.162;2023-04-03T16:35:51;1.73;;;0.63;;
43809;SDS011;29440;48.208;11.162;2023-04-03T16:38:17;2.50;;;0.73;;
43809;SDS011;29440;48.208;11.162;2023-04-03T16:40:43;2.08;;;0.70;;
43809;SDS011;29440;48.208;11.162;2023-04-03T16:43:10;3.35;;;0.60;;
43809;SDS011;29440;48.208;11.162;2023-04-03T16:45:38;1.23;;;0.60;;
43809;SDS011;29440;48.208;11.162;2023-04-03T16:48:03;1.25;;;0.60;;
43809;SDS011;29440;48.208;11.162;2023-04-03T16:50:29;1.73;;;0.50;;
43809;SDS011;29440;48.208;11.162;2023-04-03T16:52:55;1.20;;;0.68;;
43809;SDS011;29440;48.208;11.162;2023-04-03T16:55:21;1.63;;;0.63;;
43809;SDS011;29440;48.208;11.162;2023-04-03T16:57:46;3.03;;;0.50;;
43809;SDS011;29440;48.208;11.162;2023-04-03T17:00:14;2.50;;;0.63;;
43809;SDS011;29440;48.208;11.162;2023-04-03T17:02:40;3.55;;;0.80;;
43809;SDS011;29440;48.208;11.162;2023-04-03T17:05:06;3.28;;;0.80;;